Time;durP1;ratioP1;P1;durP2;ratioP2;P2;SDS_P1;SDS_P2;PMS_P1;PMS_P2;Temp;Humidity;BMP_temperature;BMP_pressure;BME280_temperature;BME280_humidity;BME280_pressure;Samples;Min_cycle;Max_cycle;Signal;HPM_P1;HPM_P2
2021/07/11 00:01:41;;;;;;;;;9.00;7.00;;;;;;;;5052715;28;45434;-78
2021/07/11 00:04:06;;;;;;;;;5.50;5.00;;;;;;;;5049731;28;45503;-80
2021/07/11 00:06:36;;;;;;;;;12.50;8.25;;;;;;;;5049183;28;48477;-79
2021/07/11 00:09:02;;;;;;;;;6.75;6.50;;;;;;;;5049517;28;45573;-79
2021/07/11 00:11:27;;;;;;;;;14.00;8.00;;;;;;;;5052400;28;45414;-78
2021/07/11 00:13:52;;;;;;;;;10.00;7.33;;;;;;;;5054128;28;45367;-79
2021/07/11 00:16:17;;;;;;;;;12.67;9.67;;;;;;;;5053166;28;47659;-79
2021/07/11 00:18:42;;;;;;;;;6.33;6.33;;;;;;;;5051742;28;45439;-79
2021/07/11 00:21:08;;;;;;;;;10.33;8.67;;;;;;;;5053125;28;45431;-79
2021/07/11 00:23:33;;;;;;;;;12.33;8.67;;;;;;;;5052163;28;45446;-80
2021/07/11 00:25:58;;;;;;;;;8.25;7.00;;;;;;;;5053555;28;45412;-79
2021/07/11 00:28:23;;;;;;;;;11.25;8.25;;;;;;;;5055427;28;45390;-79
2021/07/11 00:30:49;;;;;;;;;12.67;9.67;;;;;;;;5053239;28;45313;-79
2021/07/11 00:33:14;;;;;;;;;12.00;8.00;;;;;;;;5051970;28;45774;-79
2021/07/11 00:35:39;;;;;;;;;12.67;10.33;;;;;;;;5050881;28;46116;-79
2021/07/11 00:38:04;;;;;;;;;10.67;7.67;;;;;;;;5051377;28;45596;-79
2021/07/11 00:40:29;;;;;;;;;8.00;8.00;;;;;;;;5053749;28;45445;-80
2021/07/11 00:42:55;;;;;;;;;10.75;9.00;;;;;;;;5051311;28;47302;-78
2021/07/11 00:45:20;;;;;;;;;10.67;9.00;;;;;;;;5051548;28;45389;-78
2021/07/11 00:47:45;;;;;;;;;11.67;11.00;;;;;;;;5047123;28;45569;-79
2021/07/11 00:50:12;;;;;;;;;8.67;7.67;;;;;;;;5049944;28;45606;-80
2021/07/11 00:52:39;;;;;;;;;8.00;8.00;;;;;;;;5052164;28;45401;-77
2021/07/11 00:55:05;;;;;;;;;9.75;6.75;;;;;;;;5051681;28;49061;-79
2021/07/11 00:57:30;;;;;;;;;10.50;9.00;;;;;;;;5052546;28;45732;-79
2021/07/11 00:59:55;;;;;;;;;9.00;7.33;;;;;;;;5051860;28;45543;-80
2021/07/11 01:02:50;;;;;;;;;6.67;6.67;;;;;;;;5049330;28;45636;-79
2021/07/11 01:05:15;;;;;;;;;7.25;6.25;;;;;;;;5034671;28;45522;-80
2021/07/11 01:07:46;;;;;;;;;4.00;4.00;;;;;;;;5051886;28;46464;-79
2021/07/11 01:10:29;;;;;;;;;5.25;4.25;;;;;;;;5053500;28;45715;-81
2021/07/11 01:12:55;;;;;;;;;3.25;3.00;;;;;;;;5051381;28;45528;-79
2021/07/11 01:15:22;;;;;;;;;5.25;4.75;;;;;;;;5051272;28;46306;-79
2021/07/11 01:17:47;;;;;;;;;3.00;3.00;;;;;;;;5052181;28;45862;-79
2021/07/11 01:20:22;;;;;;;;;5.25;3.00;;;;;;;;5055134;28;45518;-79
2021/07/11 01:22:49;;;;;;;;;4.00;3.00;;;;;;;;5053947;28;45408;-80
2021/07/11 01:25:33;;;;;;;;;2.00;2.00;;;;;;;;5075170;27;47285;-79
2021/07/11 01:27:59;;;;;;;;;4.00;4.00;;;;;;;;5054691;28;45526;-79
2021/07/11 01:30:25;;;;;;;;;6.50;5.50;;;;;;;;5053428;28;45482;-80
2021/07/11 01:32:50;;;;;;;;;8.00;3.25;;;;;;;;5052216;28;45472;-79
2021/07/11 01:35:16;;;;;;;;;3.75;3.75;;;;;;;;5047041;28;46367;-80
2021/07/11 01:37:42;;;;;;;;;2.75;2.75;;;;;;;;5053887;28;45532;-79
2021/07/11 01:40:08;;;;;;;;;4.00;2.25;;;;;;;;5057090;28;45260;-79
2021/07/11 01:42:34;;;;;;;;;5.25;3.25;;;;;;;;5054968;27;45437;-79
2021/07/11 01:44:59;;;;;;;;;3.25;3.25;;;;;;;;5057787;28;48275;-80
2021/07/11 01:47:25;;;;;;;;;5.75;5.75;;;;;;;;5052344;28;45392;-79
2021/07/11 01:49:51;;;;;;;;;6.00;4.00;;;;;;;;5053567;28;45288;-78
2021/07/11 01:52:17;;;;;;;;;4.00;3.75;;;;;;;;5053688;28;47030;-79
2021/07/11 01:54:43;;;;;;;;;3.75;2.75;;;;;;;;5054093;28;46642;-79
2021/07/11 01:57:08;;;;;;;;;5.00;3.00;;;;;;;;5058755;27;45462;-80
2021/07/11 01:59:33;;;;;;;;;3.25;2.00;;;;;;;;5051348;28;45653;-79
2021/07/11 02:01:59;;;;;;;;;3.00;2.00;;;;;;;;5047042;28;45370;-78
2021/07/11 02:04:24;;;;;;;;;2.00;2.00;;;;;;;;5052090;28;45536;-79
2021/07/11 02:06:49;;;;;;;;;2.00;2.00;;;;;;;;5053428;28;45511;-79
2021/07/11 02:09:15;;;;;;;;;2.00;2.00;;;;;;;;5049891;28;45540;-79
2021/07/11 02:11:41;;;;;;;;;3.00;3.00;;;;;;;;5043328;28;45327;-79
2021/07/11 02:14:14;;;;;;;;;2.00;2.00;;;;;;;;5059949;28;46954;-79
2021/07/11 02:16:42;;;;;;;;;2.00;2.00;;;;;;;;5053635;28;45434;-79
2021/07/11 02:19:07;;;;;;;;;3.75;2.50;;;;;;;;5055231;28;45618;-79
2021/07/11 02:21:33;;;;;;;;;3.50;2.00;;;;;;;;5051383;28;45457;-79
2021/07/11 02:24:01;;;;;;;;;3.00;1.25;;;;;;;;5054527;28;46250;-79
2021/07/11 02:26:26;;;;;;;;;3.00;2.50;;;;;;;;5058588;28;45285;-78
2021/07/11 02:28:52;;;;;;;;;2.25;2.25;;;;;;;;5060329;28;45502;-79
2021/07/11 02:31:18;;;;;;;;;2.50;2.50;;;;;;;;5051758;28;45578;-79
2021/07/11 02:33:46;;;;;;;;;3.00;2.00;;;;;;;;5050207;28;46207;-79
2021/07/11 02:36:20;;;;;;;;;2.50;2.50;;;;;;;;5050261;28;45668;-80
2021/07/11 02:38:51;;;;;;;;;1.50;1.50;;;;;;;;5050836;28;45502;-79
2021/07/11 02:41:18;;;;;;;;;2.00;2.00;;;;;;;;5045616;28;45503;-79
2021/07/11 02:43:45;;;;;;;;;3.25;2.00;;;;;;;;5064577;28;45386;-80
2021/07/11 02:46:12;;;;;;;;;2.75;2.00;;;;;;;;5053931;28;45359;-79
2021/07/11 02:48:40;;;;;;;;;2.00;2.00;;;;;;;;5051432;28;45510;-79
2021/07/11 02:51:05;;;;;;;;;1.25;1.25;;;;;;;;5052545;28;45617;-79
2021/07/11 02:53:31;;;;;;;;;2.00;2.00;;;;;;;;5062745;28;46487;-79
2021/07/11 02:55:58;;;;;;;;;1.00;1.00;;;;;;;;5049953;28;46502;-79
2021/07/11 02:58:24;;;;;;;;;2.75;2.25;;;;;;;;5053543;28;45579;-81
2021/07/11 03:00:50;;;;;;;;;2.00;2.00;;;;;;;;5051975;28;45539;-79
2021/07/11 03:03:16;;;;;;;;;3.00;1.00;;;;;;;;5050904;28;47362;-79
2021/07/11 03:05:41;;;;;;;;;1.50;1.50;;;;;;;;5052194;28;45551;-79
2021/07/11 03:08:07;;;;;;;;;3.25;2.25;;;;;;;;5054992;28;45449;-79
2021/07/11 03:10:32;;;;;;;;;1.00;1.00;;;;;;;;5053168;28;45433;-79
2021/07/11 03:13:00;;;;;;;;;2.00;2.00;;;;;;;;5051477;28;45477;-78
2021/07/11 03:15:25;;;;;;;;;1.00;1.00;;;;;;;;5050794;28;45458;-79
2021/07/11 03:17:51;;;;;;;;;1.00;1.00;;;;;;;;5050060;28;45446;-79
2021/07/11 03:20:16;;;;;;;;;1.00;1.00;;;;;;;;5057584;28;45869;-79
2021/07/11 03:22:42;;;;;;;;;2.00;2.00;;;;;;;;5053527;28;46681;-79
2021/07/11 03:25:08;;;;;;;;;2.25;2.00;;;;;;;;5055768;28;45450;-79
2021/07/11 03:27:34;;;;;;;;;4.50;2.25;;;;;;;;5052358;28;45574;-79
2021/07/11 03:30:02;;;;;;;;;1.25;1.25;;;;;;;;5055830;27;45421;-79
2021/07/11 03:32:36;;;;;;;;;3.50;2.00;;;;;;;;5055385;28;46156;-79
2021/07/11 03:35:01;;;;;;;;;3.00;3.00;;;;;;;;5050826;28;45959;-79
2021/07/11 03:37:29;;;;;;;;;0.50;0.50;;;;;;;;5055796;28;45421;-79
2021/07/11 03:39:55;;;;;;;;;1.25;1.25;;;;;;;;5054547;28;45505;-79
2021/07/11 03:42:22;;;;;;;;;1.00;1.00;;;;;;;;5056814;27;45372;-78
2021/07/11 03:44:48;;;;;;;;;2.25;1.75;;;;;;;;5055881;28;45495;-79
2021/07/11 03:47:15;;;;;;;;;1.50;1.50;;;;;;;;5055689;28;45494;-79
2021/07/11 03:49:44;;;;;;;;;2.00;1.00;;;;;;;;5053542;28;45422;-78
2021/07/11 03:52:10;;;;;;;;;1.50;1.50;;;;;;;;5057739;28;45347;-79
2021/07/11 03:54:37;;;;;;;;;2.00;2.00;;;;;;;;5054862;28;45771;-79
2021/07/11 03:57:02;;;;;;;;;4.25;1.50;;;;;;;;5058117;27;45589;-78
2021/07/11 03:59:29;;;;;;;;;2.00;2.00;;;;;;;;5059453;28;45440;-79
2021/07/11 04:01:55;;;;;;;;;3.50;2.00;;;;;;;;5055366;28;45567;-79
2021/07/11 04:04:22;;;;;;;;;2.00;2.00;;;;;;;;5048496;28;45435;-80
2021/07/11 04:06:48;;;;;;;;;2.00;2.00;;;;;;;;5057829;28;45450;-79
2021/07/11 04:09:16;;;;;;;;;2.00;2.00;;;;;;;;5055075;27;45452;-79
2021/07/11 04:11:41;;;;;;;;;3.00;2.25;;;;;;;;5055056;28;48422;-79
2021/07/11 04:14:07;;;;;;;;;4.00;2.00;;;;;;;;5053566;28;45872;-79
2021/07/11 04:16:34;;;;;;;;;4.00;2.00;;;;;;;;5056695;28;45526;-79
2021/07/11 04:19:00;;;;;;;;;2.50;2.00;;;;;;;;5057704;28;45418;-78
2021/07/11 04:21:31;;;;;;;;;2.75;2.00;;;;;;;;5053644;27;46794;-79
2021/07/11 04:23:57;;;;;;;;;3.00;3.00;;;;;;;;5051498;28;45849;-79
2021/07/11 04:26:26;;;;;;;;;2.00;2.00;;;;;;;;5057497;28;45660;-79
2021/07/11 04:28:52;;;;;;;;;3.00;2.00;;;;;;;;5061846;28;45660;-79
2021/07/11 04:31:18;;;;;;;;;3.75;3.75;;;;;;;;5061306;28;45453;-79
2021/07/11 04:33:45;;;;;;;;;5.00;4.00;;;;;;;;5055950;27;45514;-80
2021/07/11 04:36:10;;;;;;;;;4.75;3.00;;;;;;;;5053909;27;45542;-80
2021/07/11 04:38:36;;;;;;;;;2.67;2.67;;;;;;;;5057327;28;45459;-80
2021/07/11 04:41:02;;;;;;;;;3.25;3.25;;;;;;;;5062542;28;47064;-79
2021/07/11 04:43:27;;;;;;;;;4.00;4.00;;;;;;;;5058547;28;45449;-80
2021/07/11 04:45:52;;;;;;;;;4.00;4.00;;;;;;;;5055447;28;45889;-80
2021/07/11 04:48:18;;;;;;;;;3.75;3.00;;;;;;;;5050842;28;45411;-78
2021/07/11 04:50:44;;;;;;;;;5.00;3.25;;;;;;;;5063581;28;45484;-80
2021/07/11 04:53:09;;;;;;;;;6.25;3.00;;;;;;;;5053888;28;45388;-79
2021/07/11 04:55:34;;;;;;;;;5.50;3.00;;;;;;;;5054737;28;45376;-79
2021/07/11 04:58:00;;;;;;;;;6.50;4.25;;;;;;;;5054331;28;45458;-79
2021/07/11 05:00:25;;;;;;;;;7.50;4.00;;;;;;;;5050023;28;48631;-80
2021/07/11 05:02:50;;;;;;;;;2.67;2.67;;;;;;;;5052229;28;45688;-79
2021/07/11 05:05:15;;;;;;;;;5.00;2.00;;;;;;;;5053265;28;45453;-79
2021/07/11 05:07:41;;;;;;;;;3.00;2.00;;;;;;;;5059353;28;45681;-79
2021/07/11 05:10:07;;;;;;;;;1.75;1.75;;;;;;;;5051951;28;46106;-79
2021/07/11 05:12:32;;;;;;;;;5.25;2.75;;;;;;;;5052831;28;45547;-80
2021/07/11 05:14:57;;;;;;;;;2.75;2.75;;;;;;;;5052781;28;45596;-79
2021/07/11 05:17:23;;;;;;;;;4.00;3.67;;;;;;;;5056374;28;46538;-80
2021/07/11 05:19:48;;;;;;;;;3.00;3.00;;;;;;;;5056826;28;45466;-79
2021/07/11 05:22:13;;;;;;;;;3.00;3.00;;;;;;;;5052853;28;45587;-79
2021/07/11 05:24:39;;;;;;;;;2.67;2.67;;;;;;;;5052649;28;45608;-79
2021/07/11 05:27:04;;;;;;;;;3.50;2.50;;;;;;;;5055719;27;45755;-79
2021/07/11 05:29:29;;;;;;;;;3.00;3.00;;;;;;;;5054130;28;45526;-79
2021/07/11 05:31:54;;;;;;;;;3.00;3.00;;;;;;;;5051433;28;45676;-80
2021/07/11 05:34:20;;;;;;;;;2.33;2.33;;;;;;;;5057071;28;45216;-79
2021/07/11 05:36:45;;;;;;;;;2.00;2.00;;;;;;;;5054121;28;45363;-80
2021/07/11 05:39:10;;;;;;;;;2.67;2.67;;;;;;;;5054681;28;45516;-80
2021/07/11 05:41:35;;;;;;;;;3.00;3.00;;;;;;;;5062316;28;45411;-80
2021/07/11 05:44:02;;;;;;;;;2.25;2.00;;;;;;;;5064120;28;45441;-78
2021/07/11 05:46:27;;;;;;;;;2.00;1.25;;;;;;;;5061614;28;45504;-79
2021/07/11 05:48:52;;;;;;;;;3.00;3.00;;;;;;;;5059265;28;46765;-80
2021/07/11 05:51:18;;;;;;;;;3.00;3.00;;;;;;;;5050799;28;45531;-80
2021/07/11 05:53:43;;;;;;;;;2.33;2.33;;;;;;;;5049461;28;45497;-79
2021/07/11 05:56:08;;;;;;;;;2.00;2.00;;;;;;;;5052069;28;45412;-79
2021/07/11 05:58:33;;;;;;;;;3.33;2.00;;;;;;;;5061505;28;47185;-79
2021/07/11 06:00:58;;;;;;;;;2.50;2.50;;;;;;;;5057243;27;45557;-79
2021/07/11 06:03:24;;;;;;;;;4.33;3.00;;;;;;;;5060089;28;45583;-80
2021/07/11 06:05:49;;;;;;;;;4.00;2.00;;;;;;;;5052506;28;45503;-79
2021/07/11 06:08:14;;;;;;;;;3.33;2.67;;;;;;;;5056761;28;46081;-80
2021/07/11 06:10:39;;;;;;;;;2.67;2.67;;;;;;;;5054540;28;45407;-80
2021/07/11 06:13:05;;;;;;;;;2.33;2.33;;;;;;;;5050086;28;45537;-79
2021/07/11 06:15:32;;;;;;;;;3.00;3.00;;;;;;;;5051842;28;45959;-80
2021/07/11 06:17:57;;;;;;;;;3.00;3.00;;;;;;;;5060626;27;45265;-80
2021/07/11 06:20:23;;;;;;;;;3.50;3.00;;;;;;;;5051269;28;45435;-80
2021/07/11 06:22:48;;;;;;;;;3.00;2.00;;;;;;;;5048814;28;45504;-79
2021/07/11 06:25:13;;;;;;;;;3.00;3.00;;;;;;;;5056390;28;45601;-79
2021/07/11 06:27:41;;;;;;;;;2.00;2.00;;;;;;;;5050667;28;45493;-80
2021/07/11 06:30:09;;;;;;;;;4.00;3.50;;;;;;;;5051381;28;45694;-79
2021/07/11 06:32:34;;;;;;;;;4.00;2.50;;;;;;;;5052241;28;45493;-80
2021/07/11 06:35:03;;;;;;;;;3.50;2.25;;;;;;;;5055590;28;45265;-80
2021/07/11 06:37:28;;;;;;;;;3.00;3.00;;;;;;;;5061223;28;45793;-79
2021/07/11 06:39:54;;;;;;;;;4.00;3.00;;;;;;;;5048357;28;45470;-80
2021/07/11 06:42:19;;;;;;;;;2.00;2.00;;;;;;;;5049639;28;45745;-80
2021/07/11 06:44:44;;;;;;;;;3.00;2.33;;;;;;;;5050779;28;45497;-80
2021/07/11 06:47:09;;;;;;;;;3.00;3.00;;;;;;;;5050124;28;46010;-80
2021/07/11 06:49:35;;;;;;;;;1.67;1.67;;;;;;;;5051878;28;46025;-80
2021/07/11 06:52:00;;;;;;;;;2.50;2.50;;;;;;;;5050378;28;45699;-80
2021/07/11 06:54:26;;;;;;;;;3.50;2.50;;;;;;;;5050079;28;45529;-79
2021/07/11 06:56:51;;;;;;;;;3.75;2.25;;;;;;;;5050930;28;46536;-81
2021/07/11 06:59:16;;;;;;;;;4.00;2.00;;;;;;;;5050419;28;45402;-81
2021/07/11 07:01:41;;;;;;;;;5.33;3.00;;;;;;;;5050687;28;45605;-82
2021/07/11 07:04:07;;;;;;;;;3.67;3.67;;;;;;;;5052402;28;45780;-81
2021/07/11 07:06:32;;;;;;;;;3.75;3.00;;;;;;;;5040929;28;47405;-81
2021/07/11 07:08:57;;;;;;;;;1.75;1.75;;;;;;;;5054890;28;45460;-81
2021/07/11 07:11:23;;;;;;;;;3.00;3.00;;;;;;;;5039100;28;45481;-81
2021/07/11 07:13:48;;;;;;;;;3.00;3.00;;;;;;;;5052597;28;45506;-81
2021/07/11 07:16:13;;;;;;;;;4.00;3.33;;;;;;;;5049834;28;45691;-81
2021/07/11 07:18:38;;;;;;;;;1.75;1.75;;;;;;;;5051873;28;45663;-81
2021/07/11 07:21:04;;;;;;;;;3.00;3.00;;;;;;;;5052827;28;45378;-81
2021/07/11 07:23:29;;;;;;;;;4.33;3.00;;;;;;;;5055360;28;45496;-82
2021/07/11 07:25:54;;;;;;;;;2.67;2.67;;;;;;;;5058685;28;45783;-82
2021/07/11 07:28:19;;;;;;;;;3.25;2.25;;;;;;;;5054175;28;45508;-82
2021/07/11 07:30:45;;;;;;;;;2.25;2.25;;;;;;;;5055578;28;45523;-81
2021/07/11 07:33:10;;;;;;;;;2.33;2.33;;;;;;;;5056191;28;45467;-81
2021/07/11 07:35:35;;;;;;;;;2.00;2.00;;;;;;;;5055464;28;46124;-81
2021/07/11 07:38:01;;;;;;;;;2.00;2.00;;;;;;;;5043945;28;45867;-81
2021/07/11 07:40:26;;;;;;;;;4.00;3.00;;;;;;;;5048626;28;45504;-81
2021/07/11 07:42:51;;;;;;;;;2.50;2.50;;;;;;;;5052253;28;45614;-81
2021/07/11 07:45:17;;;;;;;;;2.67;2.67;;;;;;;;5059464;28;45404;-81
2021/07/11 07:47:42;;;;;;;;;2.00;2.00;;;;;;;;5050358;28;45504;-81
2021/07/11 07:50:09;;;;;;;;;2.00;2.00;;;;;;;;5061745;28;45402;-81
2021/07/11 07:52:34;;;;;;;;;2.75;2.75;;;;;;;;5055757;28;45331;-80
2021/07/11 07:54:59;;;;;;;;;2.00;1.00;;;;;;;;5047097;28;45590;-80
2021/07/11 07:57:25;;;;;;;;;2.00;2.00;;;;;;;;5049739;28;45463;-81
2021/07/11 07:59:50;;;;;;;;;4.00;3.25;;;;;;;;5062320;28;45410;-81
2021/07/11 08:02:15;;;;;;;;;2.50;2.50;;;;;;;;5045230;28;45483;-80
2021/07/11 08:04:42;;;;;;;;;3.00;3.00;;;;;;;;5066065;28;46009;-80
2021/07/11 08:07:07;;;;;;;;;2.00;2.00;;;;;;;;5054136;28;45844;-81
2021/07/11 08:09:33;;;;;;;;;4.00;2.75;;;;;;;;5051008;28;45450;-81
2021/07/11 08:11:58;;;;;;;;;5.00;3.50;;;;;;;;5052710;28;45604;-80
2021/07/11 08:14:23;;;;;;;;;1.50;1.50;;;;;;;;5049239;28;45487;-81
2021/07/11 08:16:48;;;;;;;;;2.00;2.00;;;;;;;;5058444;28;45463;-80
2021/07/11 08:19:14;;;;;;;;;2.00;2.00;;;;;;;;5059771;28;45452;-81
2021/07/11 08:21:39;;;;;;;;;3.00;3.00;;;;;;;;5058975;28;45476;-81
2021/07/11 08:24:05;;;;;;;;;2.25;2.00;;;;;;;;5052773;28;47511;-83
2021/07/11 08:26:31;;;;;;;;;3.00;3.00;;;;;;;;5053078;28;45495;-82
2021/07/11 08:28:57;;;;;;;;;4.00;3.00;;;;;;;;5052966;28;45569;-84
2021/07/11 08:31:22;;;;;;;;;3.00;2.00;;;;;;;;5059923;28;45663;-82
2021/07/11 08:33:48;;;;;;;;;2.00;2.00;;;;;;;;5056134;28;46049;-82
2021/07/11 08:36:13;;;;;;;;;4.00;3.00;;;;;;;;5060940;28;45425;-81
2021/07/11 08:38:39;;;;;;;;;2.00;2.00;;;;;;;;5052902;28;45628;-82
2021/07/11 08:41:04;;;;;;;;;3.00;1.50;;;;;;;;5063586;28;45610;-82
2021/07/11 08:43:29;;;;;;;;;4.00;3.00;;;;;;;;5062890;28;45733;-80
2021/07/11 08:45:55;;;;;;;;;4.00;4.00;;;;;;;;5050997;27;45489;-82
2021/07/11 08:48:20;;;;;;;;;4.00;3.00;;;;;;;;5054104;28;45531;-84
2021/07/11 08:50:45;;;;;;;;;1.67;1.67;;;;;;;;5052448;28;45652;-81
2021/07/11 08:53:15;;;;;;;;;2.00;2.00;;;;;;;;5051607;28;45923;-80
2021/07/11 08:55:41;;;;;;;;;2.00;2.00;;;;;;;;5061924;28;45504;-82
2021/07/11 08:58:06;;;;;;;;;2.00;2.00;;;;;;;;5060585;27;45470;-82
2021/07/11 09:00:34;;;;;;;;;2.00;2.00;;;;;;;;5055673;28;45319;-82
2021/07/11 09:02:59;;;;;;;;;2.25;2.25;;;;;;;;5063300;27;46675;-82
2021/07/11 09:05:39;;;;;;;;;3.00;3.00;;;;;;;;5063788;28;45458;-83
2021/07/11 09:08:06;;;;;;;;;4.00;4.00;;;;;;;;5057655;28;45472;-81
2021/07/11 09:10:35;;;;;;;;;3.75;2.75;;;;;;;;5054328;28;45450;-83
2021/07/11 09:13:01;;;;;;;;;3.75;2.75;;;;;;;;5052987;28;45441;-82
2021/07/11 09:15:34;;;;;;;;;5.50;3.50;;;;;;;;5051332;28;45449;-83
2021/07/11 09:17:59;;;;;;;;;3.00;2.00;;;;;;;;5052255;28;45625;-80
2021/07/11 09:20:25;;;;;;;;;5.00;2.50;;;;;;;;5065524;28;45392;-81
2021/07/11 09:22:58;;;;;;;;;3.00;3.00;;;;;;;;5053817;28;48502;-80
2021/07/11 09:25:23;;;;;;;;;3.00;3.00;;;;;;;;5054929;28;45702;-80
2021/07/11 09:27:49;;;;;;;;;5.50;4.00;;;;;;;;5053159;28;45438;-79
2021/07/11 09:30:16;;;;;;;;;4.00;4.00;;;;;;;;5052734;28;45429;-79
2021/07/11 09:32:41;;;;;;;;;5.75;4.25;;;;;;;;5063870;28;45403;-80
2021/07/11 09:35:14;;;;;;;;;4.25;4.25;;;;;;;;5062887;28;45265;-80
2021/07/11 09:37:41;;;;;;;;;5.25;4.25;;;;;;;;5060914;28;45454;-80
2021/07/11 09:40:07;;;;;;;;;4.50;4.00;;;;;;;;5057047;28;45629;-80
2021/07/11 09:42:36;;;;;;;;;4.00;4.00;;;;;;;;5053757;28;45790;-80
2021/07/11 09:45:06;;;;;;;;;5.00;4.75;;;;;;;;5075114;27;45926;-79
2021/07/11 09:47:32;;;;;;;;;4.00;4.00;;;;;;;;5062914;28;45298;-81
2021/07/11 09:50:06;;;;;;;;;4.00;4.00;;;;;;;;5063981;28;45442;-81
2021/07/11 09:52:32;;;;;;;;;2.75;2.75;;;;;;;;5079177;27;47586;-81
2021/07/11 09:55:06;;;;;;;;;4.50;4.00;;;;;;;;5053743;27;45520;-80
2021/07/11 09:57:35;;;;;;;;;3.50;3.50;;;;;;;;5052806;28;45945;-81
2021/07/11 10:00:10;;;;;;;;;5.50;4.25;;;;;;;;5059108;28;45471;-81
2021/07/11 10:02:36;;;;;;;;;3.00;3.00;;;;;;;;5048495;28;48405;-81
2021/07/11 10:05:02;;;;;;;;;5.75;3.50;;;;;;;;5048879;28;45900;-81
2021/07/11 10:07:28;;;;;;;;;3.75;3.75;;;;;;;;5067682;28;46733;-81
2021/07/11 10:09:53;;;;;;;;;4.75;4.75;;;;;;;;5049144;28;45543;-81
2021/07/11 10:12:19;;;;;;;;;5.33;4.00;;;;;;;;5050291;28;47203;-82
2021/07/11 10:14:44;;;;;;;;;5.25;5.00;;;;;;;;5052154;28;45818;-82
2021/07/11 10:17:09;;;;;;;;;3.00;3.00;;;;;;;;5053395;28;45583;-82
2021/07/11 10:19:34;;;;;;;;;5.00;4.00;;;;;;;;5053692;28;45536;-81
2021/07/11 10:22:12;;;;;;;;;4.00;4.00;;;;;;;;5049492;28;45623;-82
2021/07/11 10:24:41;;;;;;;;;4.00;4.00;;;;;;;;5051691;28;45910;-81
2021/07/11 10:27:16;;;;;;;;;3.25;3.00;;;;;;;;5050998;28;45733;-83
2021/07/11 10:29:46;;;;;;;;;5.75;4.00;;;;;;;;5050380;28;45574;-82
2021/07/11 10:32:21;;;;;;;;;3.00;3.00;;;;;;;;5062702;28;46711;-83
2021/07/11 10:34:46;;;;;;;;;5.25;4.00;;;;;;;;5067138;27;46117;-82
2021/07/11 10:37:12;;;;;;;;;4.00;4.00;;;;;;;;5059665;28;45968;-82
2021/07/11 10:39:37;;;;;;;;;3.50;3.50;;;;;;;;5062306;28;45501;-82
2021/07/11 10:42:03;;;;;;;;;3.00;3.00;;;;;;;;5062006;28;47025;-82
2021/07/11 10:44:28;;;;;;;;;5.00;3.00;;;;;;;;5065870;28;45313;-83
2021/07/11 10:46:53;;;;;;;;;4.33;4.00;;;;;;;;5063921;28;45425;-82
2021/07/11 10:49:22;;;;;;;;;3.00;3.00;;;;;;;;5070736;28;45304;-82
2021/07/11 10:51:58;;;;;;;;;4.00;4.00;;;;;;;;5059302;27;46089;-81
2021/07/11 10:54:28;;;;;;;;;4.00;4.00;;;;;;;;5056439;28;45596;-81
2021/07/11 10:56:54;;;;;;;;;3.50;3.25;;;;;;;;5057469;28;45397;-84
2021/07/11 10:59:33;;;;;;;;;5.00;5.00;;;;;;;;5049244;28;45493;-82
2021/07/11 11:01:59;;;;;;;;;4.00;3.50;;;;;;;;5052777;28;47129;-82
2021/07/11 11:04:24;;;;;;;;;3.50;3.50;;;;;;;;5053480;28;45435;-82
2021/07/11 11:06:49;;;;;;;;;3.33;3.00;;;;;;;;5050925;28;45442;-82
2021/07/11 11:09:33;;;;;;;;;3.50;3.25;;;;;;;;5048212;28;45485;-82
2021/07/11 11:11:58;;;;;;;;;4.00;3.00;;;;;;;;5040835;28;45392;-83
2021/07/11 11:14:26;;;;;;;;;3.25;3.25;;;;;;;;5050380;28;45445;-82
2021/07/11 11:16:52;;;;;;;;;4.75;3.75;;;;;;;;5049617;28;45393;-82
2021/07/11 11:19:17;;;;;;;;;4.25;4.25;;;;;;;;5046967;28;45356;-82
2021/07/11 11:21:42;;;;;;;;;3.75;3.25;;;;;;;;5047148;28;46170;-81
2021/07/11 11:24:08;;;;;;;;;4.00;4.00;;;;;;;;5056811;28;45353;-82
2021/07/11 11:26:33;;;;;;;;;6.00;4.00;;;;;;;;5046643;28;45496;-83
2021/07/11 11:28:59;;;;;;;;;4.00;3.25;;;;;;;;5047737;28;45423;-82
2021/07/11 11:31:29;;;;;;;;;3.25;3.00;;;;;;;;5056398;28;46949;-82
2021/07/11 11:33:59;;;;;;;;;3.50;3.50;;;;;;;;5052203;28;45705;-82
2021/07/11 11:36:29;;;;;;;;;4.00;3.75;;;;;;;;5051456;28;46887;-83
2021/07/11 11:38:55;;;;;;;;;3.50;3.50;;;;;;;;5043820;28;45241;-82
2021/07/11 11:41:21;;;;;;;;;4.00;4.00;;;;;;;;5048699;28;46171;-82
2021/07/11 11:43:48;;;;;;;;;3.00;3.00;;;;;;;;5056749;28;45430;-79
2021/07/11 11:46:29;;;;;;;;;4.00;4.00;;;;;;;;5049620;28;45456;-81
2021/07/11 11:49:02;;;;;;;;;5.00;4.00;;;;;;;;5049347;28;45526;-82
2021/07/11 11:51:28;;;;;;;;;4.25;4.25;;;;;;;;5048809;28;46838;-82
2021/07/11 11:53:55;;;;;;;;;3.00;3.00;;;;;;;;5046464;28;45781;-80
2021/07/11 11:56:21;;;;;;;;;3.00;3.00;;;;;;;;5049505;28;45479;-82
2021/07/11 11:58:46;;;;;;;;;4.00;3.00;;;;;;;;5051643;28;45541;-80
2021/07/11 12:01:13;;;;;;;;;5.75;4.50;;;;;;;;5063235;28;47383;-79
2021/07/11 12:03:39;;;;;;;;;3.25;3.25;;;;;;;;5042931;28;45352;-80
2021/07/11 12:06:07;;;;;;;;;4.00;4.00;;;;;;;;5048738;28;45871;-81
2021/07/11 12:08:35;;;;;;;;;4.50;3.75;;;;;;;;5051567;28;45533;-80
2021/07/11 12:11:00;;;;;;;;;3.00;3.00;;;;;;;;5053788;28;46230;-81
2021/07/11 12:13:25;;;;;;;;;3.00;3.00;;;;;;;;5053832;28;45407;-82
2021/07/11 12:16:00;;;;;;;;;2.25;2.25;;;;;;;;5053462;28;45359;-81
2021/07/11 12:18:26;;;;;;;;;3.00;3.00;;;;;;;;5052299;28;45331;-81
2021/07/11 12:20:54;;;;;;;;;2.00;2.00;;;;;;;;5050007;28;48026;-80
2021/07/11 12:23:19;;;;;;;;;2.75;2.75;;;;;;;;5047306;28;45776;-80
2021/07/11 12:25:45;;;;;;;;;4.25;3.00;;;;;;;;5051300;28;45948;-81
2021/07/11 12:28:13;;;;;;;;;2.50;2.50;;;;;;;;5055058;28;45507;-80
2021/07/11 12:30:44;;;;;;;;;2.50;2.50;;;;;;;;5053065;28;45762;-80
2021/07/11 12:33:11;;;;;;;;;3.75;2.50;;;;;;;;5051449;28;45476;-80
2021/07/11 12:35:46;;;;;;;;;4.00;4.00;;;;;;;;5050240;28;45521;-81
2021/07/11 12:38:12;;;;;;;;;4.00;4.00;;;;;;;;5043961;28;45585;-81
2021/07/11 12:40:37;;;;;;;;;3.75;3.75;;;;;;;;5049873;28;45993;-81
2021/07/11 12:43:05;;;;;;;;;4.00;3.50;;;;;;;;5051514;28;45431;-80
2021/07/11 12:45:31;;;;;;;;;4.25;4.00;;;;;;;;5052012;28;45305;-81
2021/07/11 12:47:56;;;;;;;;;3.25;3.25;;;;;;;;5052623;28;45391;-80
2021/07/11 12:50:35;;;;;;;;;4.00;4.00;;;;;;;;5047535;28;46117;-80
2021/07/11 12:53:01;;;;;;;;;3.00;3.00;;;;;;;;5052295;28;45863;-80
2021/07/11 12:55:26;;;;;;;;;3.00;3.00;;;;;;;;5052561;28;45810;-76
2021/07/11 12:57:51;;;;;;;;;3.00;3.00;;;;;;;;5051057;28;45403;-76
2021/07/11 13:00:24;;;;;;;;;5.00;3.33;;;;;;;;5052056;28;45355;-76
2021/07/11 13:02:56;;;;;;;;;3.50;3.50;;;;;;;;5052076;28;45721;-77
2021/07/11 13:05:30;;;;;;;;;4.25;4.25;;;;;;;;5063701;28;45559;-76
2021/07/11 13:08:01;;;;;;;;;4.00;4.00;;;;;;;;5053986;28;45278;-77
2021/07/11 13:10:26;;;;;;;;;5.00;5.00;;;;;;;;5052155;28;45942;-78
2021/07/11 13:12:51;;;;;;;;;6.33;5.00;;;;;;;;5048202;28;46755;-78
2021/07/11 13:15:17;;;;;;;;;5.00;3.67;;;;;;;;5047747;28;45701;-77
2021/07/11 13:17:44;;;;;;;;;3.25;3.25;;;;;;;;5057104;28;45603;-77
2021/07/11 13:20:10;;;;;;;;;3.00;3.00;;;;;;;;5062926;28;45517;-77
2021/07/11 13:22:35;;;;;;;;;3.00;3.00;;;;;;;;5054625;28;45724;-77
2021/07/11 13:25:00;;;;;;;;;6.00;3.00;;;;;;;;5056258;28;45508;-77
2021/07/11 13:27:26;;;;;;;;;2.25;2.25;;;;;;;;5052566;28;45449;-77
2021/07/11 13:29:51;;;;;;;;;4.00;4.00;;;;;;;;5061713;28;46222;-77
2021/07/11 13:32:17;;;;;;;;;4.00;4.00;;;;;;;;5053963;28;45555;-77
2021/07/11 13:34:43;;;;;;;;;4.00;3.00;;;;;;;;5054961;28;45565;-77
2021/07/11 13:37:08;;;;;;;;;3.25;3.25;;;;;;;;5057218;28;45488;-77
2021/07/11 13:39:34;;;;;;;;;4.75;3.00;;;;;;;;5053166;28;45542;-77
2021/07/11 13:41:59;;;;;;;;;2.75;2.75;;;;;;;;5053498;28;45477;-77
2021/07/11 13:44:24;;;;;;;;;3.00;3.00;;;;;;;;5064385;28;45752;-77
2021/07/11 13:46:50;;;;;;;;;3.50;3.50;;;;;;;;5058828;28;45431;-77
2021/07/11 13:49:15;;;;;;;;;4.25;3.00;;;;;;;;5050571;28;46375;-77
2021/07/11 13:51:40;;;;;;;;;2.67;2.67;;;;;;;;5052788;28;45535;-77
2021/07/11 13:54:05;;;;;;;;;3.50;3.50;;;;;;;;5042876;27;45348;-78
2021/07/11 13:56:31;;;;;;;;;2.00;2.00;;;;;;;;5046307;28;45581;-77
2021/07/11 13:58:56;;;;;;;;;3.00;3.00;;;;;;;;5051809;28;48393;-77
2021/07/11 14:01:21;;;;;;;;;4.00;4.00;;;;;;;;5059691;28;45454;-77
2021/07/11 14:03:46;;;;;;;;;4.00;4.00;;;;;;;;5055548;27;45631;-77
2021/07/11 14:06:12;;;;;;;;;3.00;2.67;;;;;;;;5051522;28;45637;-77
2021/07/11 14:08:37;;;;;;;;;2.00;2.00;;;;;;;;5056028;28;45391;-78
2021/07/11 14:11:03;;;;;;;;;3.00;3.00;;;;;;;;5052434;28;45600;-77
2021/07/11 14:13:29;;;;;;;;;4.00;4.00;;;;;;;;5052400;28;45496;-79
2021/07/11 14:15:54;;;;;;;;;4.25;3.00;;;;;;;;5055428;28;45370;-77
2021/07/11 14:18:19;;;;;;;;;3.75;3.75;;;;;;;;5057720;28;46103;-77
2021/07/11 14:20:45;;;;;;;;;4.75;3.25;;;;;;;;5050732;28;46737;-77
2021/07/11 14:23:10;;;;;;;;;3.00;3.00;;;;;;;;5042037;28;45391;-77
2021/07/11 14:25:36;;;;;;;;;2.25;2.25;;;;;;;;5047550;28;45467;-76
2021/07/11 14:28:02;;;;;;;;;3.00;3.00;;;;;;;;5040673;28;47543;-77
2021/07/11 14:30:27;;;;;;;;;3.00;3.00;;;;;;;;5046860;28;45590;-77
2021/07/11 14:32:52;;;;;;;;;3.00;3.00;;;;;;;;5041345;28;45679;-77
2021/07/11 14:35:18;;;;;;;;;3.33;3.00;;;;;;;;5043484;28;45500;-78
2021/07/11 14:37:43;;;;;;;;;3.25;3.25;;;;;;;;5044691;28;46088;-77
2021/07/11 14:40:08;;;;;;;;;2.67;2.67;;;;;;;;5043197;28;46003;-77